Time;durP1;ratioP1;P1;durP2;ratioP2;P2;SDS_P1;SDS_P2;PMS_P1;PMS_P2;Temp;Humidity;BMP_temperature;BMP_pressure;BME280_temperature;BME280_humidity;BME280_pressure;Samples;Min_cycle;Max_cycle;Signal;HPM_P1;HPM_P2
2022/12/13 00:01:29;;;;;;;43.65;18.60;;;-5.20;99.90;;;-6.20;100.00;97041.16;4994809;28;20053;-72
2022/12/13 00:04:02;;;;;;;39.20;15.80;;;-5.30;99.90;;;-6.21;100.00;97037.81;5008720;28;20062;-72
2022/12/13 00:06:30;;;;;;;41.58;15.00;;;-5.30;99.90;;;-6.15;100.00;97039.59;5001101;28;20472;-72
2022/12/13 00:08:58;;;;;;;32.28;13.45;;;-5.30;99.90;;;-6.20;100.00;97028.53;4999760;28;20054;-72
2022/12/13 00:11:26;;;;;;;36.85;15.18;;;-5.30;99.90;;;-6.14;100.00;97029.47;5000835;28;20053;-72
2022/12/13 00:13:53;;;;;;;37.88;16.55;;;-5.30;99.90;;;-6.19;100.00;97023.50;4998928;28;20062;-72
2022/12/13 00:16:23;;;;;;;36.88;15.57;;;-5.30;99.90;;;-6.13;100.00;97025.31;4999478;28;20045;-73
2022/12/13 00:18:57;;;;;;;42.50;17.38;;;-5.30;99.90;;;-6.15;100.00;97026.94;5000105;28;20466;-73
2022/12/13 00:21:30;;;;;;;33.80;14.65;;;-5.30;99.90;;;-6.25;100.00;97023.41;5000791;28;20061;-72
2022/12/13 00:23:58;;;;;;;;;;;-5.30;99.90;;;-6.27;100.00;97026.75;4998547;28;20056;-72
2022/12/13 00:26:30;;;;;;;40.42;16.85;;;-5.30;99.90;;;-6.23;100.00;97025.97;5003885;28;19925;-72
2022/12/13 00:29:04;;;;;;;42.92;17.13;;;-5.30;99.90;;;-6.26;100.00;97019.22;4996779;28;20057;-73
2022/12/13 00:31:32;;;;;;;29.20;12.90;;;-5.30;99.90;;;-6.24;100.00;97017.56;4997192;28;20133;-72
2022/12/13 00:34:20;;;;;;;30.95;14.05;;;-5.30;99.90;;;-6.25;100.00;97020.06;4998556;28;20046;-73
2022/12/13 00:36:48;;;;;;;41.70;16.17;;;-5.30;99.90;;;-6.20;100.00;97016.78;4998817;28;20057;-72
2022/12/13 00:39:17;;;;;;;45.67;15.95;;;-5.30;99.90;;;-6.23;100.00;97008.28;5004832;28;20060;-73
2022/12/13 00:41:45;;;;;;;41.08;14.93;;;-5.20;99.90;;;-6.13;100.00;97007.63;5016226;28;20050;-73
2022/12/13 00:44:13;;;;;;;35.17;13.88;;;-5.20;99.90;;;-6.15;100.00;97014.31;5004886;28;20046;-72
2022/12/13 00:46:41;;;;;;;37.40;15.75;;;-5.20;99.90;;;-6.21;100.00;97004.97;5002574;28;20168;-73
2022/12/13 00:49:10;;;;;;;40.90;16.38;;;-5.30;99.90;;;-6.21;100.00;97007.50;5002467;28;20614;-73
2022/12/13 00:51:37;;;;;;;39.10;15.07;;;-5.30;99.90;;;-6.16;100.00;97005.91;5006230;28;20057;-72
2022/12/13 00:54:05;;;;;;;33.10;12.55;;;-5.30;99.90;;;-6.22;100.00;97010.00;5007728;28;20670;-72
2022/12/13 00:56:32;;;;;;;30.05;11.98;;;-5.30;99.90;;;-6.22;100.00;97012.53;4997348;28;20050;-73
2022/12/13 00:58:59;;;;;;;35.88;13.88;;;-5.30;99.90;;;-6.24;100.00;97002.41;5006664;28;20061;-73
2022/12/13 01:01:30;;;;;;;33.53;13.65;;;-5.40;99.90;;;-6.27;100.00;97004.91;5002969;28;20042;-72
2022/12/13 01:04:00;;;;;;;32.67;14.20;;;-5.40;99.90;;;-6.24;100.00;96993.97;5003512;28;20200;-72
2022/12/13 01:06:40;;;;;;;35.50;15.77;;;-5.40;99.90;;;-6.50;100.00;96998.66;4988082;28;20484;-72
2022/12/13 01:09:16;;;;;;;34.28;14.23;;;-5.50;99.90;;;-6.51;100.00;97007.91;5004213;28;20074;-73
2022/12/13 01:11:45;;;;;;;35.42;15.07;;;-5.50;99.90;;;-6.47;100.00;97003.75;5005638;28;20685;-72
2022/12/13 01:14:12;;;;;;;34.63;14.43;;;-5.50;99.90;;;-6.59;100.00;97000.22;5002929;28;20065;-72
2022/12/13 01:16:39;;;;;;;39.55;15.13;;;-5.60;99.90;;;-6.61;100.00;96996.81;5004294;28;20050;-72
2022/12/13 01:19:06;;;;;;;42.10;15.95;;;-5.50;99.90;;;-6.55;100.00;96998.56;5004724;28;20054;-72
2022/12/13 01:21:33;;;;;;;41.58;15.15;;;-5.60;99.90;;;-6.58;100.00;96996.00;5004332;28;20065;-72
2022/12/13 01:24:02;;;;;;;40.78;17.95;;;-5.60;99.90;;;-6.55;100.00;96991.00;5003946;28;20073;-72
2022/12/13 01:26:30;;;;;;;41.17;15.77;;;-5.60;99.90;;;-6.53;100.00;96992.72;5004943;28;20488;-72
2022/12/13 01:28:57;;;;;;;34.60;14.75;;;-5.60;99.90;;;-6.59;100.00;96989.25;5002576;28;20050;-73
2022/12/13 01:31:25;;;;;;;42.55;16.30;;;-5.60;99.90;;;-6.65;100.00;96995.06;5000457;28;20057;-73
2022/12/13 01:33:52;;;;;;;37.38;13.95;;;-5.70;99.90;;;-6.61;100.00;96985.88;5003599;28;20056;-72
2022/12/13 01:36:21;;;;;;;43.78;15.20;;;-5.70;99.90;;;-6.55;100.00;96994.38;5004579;28;20072;-72
2022/12/13 01:38:55;;;;;;;43.20;15.90;;;-5.70;99.90;;;-6.58;100.00;96985.91;5005610;28;20062;-72
2022/12/13 01:41:27;;;;;;;42.78;17.80;;;-5.70;99.90;;;-6.59;100.00;96979.16;5004823;28;20794;-72
2022/12/13 01:44:02;;;;;;;43.40;16.60;;;-5.70;99.90;;;-6.65;100.00;96982.44;5005404;28;20054;-72
2022/12/13 01:46:34;;;;;;;48.40;20.20;;;-5.80;99.90;;;-6.67;100.00;96983.25;5001454;28;20069;-73
2022/12/13 01:49:14;;;;;;;49.90;20.35;;;-5.80;99.90;;;-6.64;100.00;96976.56;5002020;28;20042;-72
2022/12/13 01:51:58;;;;;;;34.90;14.35;;;-5.80;99.90;;;-6.60;100.00;96974.94;5002831;28;20058;-73
2022/12/13 01:54:32;;;;;;;44.92;17.52;;;-5.70;99.90;;;-6.57;100.00;96974.97;5003654;28;20156;-73
2022/12/13 01:57:04;;;;;;;38.67;15.07;;;-5.70;99.90;;;-6.62;100.00;96979.97;5000798;28;20412;-72
2022/12/13 01:59:34;;;;;;;34.47;12.75;;;-5.80;99.90;;;-6.62;100.00;96977.44;5017227;28;20053;-72
2022/12/13 02:02:01;;;;;;;32.60;13.93;;;-5.80;99.90;;;-6.70;100.00;96978.16;5015531;28;20042;-72
2022/12/13 02:04:39;;;;;;;34.42;14.30;;;-5.80;99.90;;;-6.59;100.00;96974.09;5001545;28;20045;-73
2022/12/13 02:07:13;;;;;;;34.78;14.00;;;-5.70;99.90;;;-6.63;100.00;96973.22;5002798;28;20539;-72
2022/12/13 02:09:55;;;;;;;35.65;13.15;;;-5.70;99.90;;;-6.67;100.00;96979.06;5000387;28;20519;-74
2022/12/13 02:12:30;;;;;;;31.60;13.23;;;-5.80;99.90;;;-6.66;100.00;96985.81;5002469;28;20053;-72
2022/12/13 02:15:10;;;;;;;35.83;15.15;;;-5.80;99.90;;;-6.67;100.00;96985.78;5004664;28;20053;-72
2022/12/13 02:18:09;;;;;;;33.42;15.10;;;-5.80;99.90;;;-6.62;100.00;96990.06;5017175;28;20484;-73
2022/12/13 02:21:07;;;;;;;34.50;13.65;;;-5.80;99.90;;;-6.64;100.00;96984.13;5018995;28;20046;-73
2022/12/13 02:24:02;;;;;;;33.28;13.45;;;-5.80;99.90;;;-6.65;100.00;96986.66;5008794;28;20046;-73
2022/12/13 02:27:03;;;;;;;35.00;13.70;;;-5.80;99.90;;;-6.72;100.00;96978.13;5004074;28;20392;-72
2022/12/13 02:30:30;;;;;;;40.30;16.00;;;-5.80;99.90;;;-6.95;100.00;96975.25;5002784;28;20084;-73
2022/12/13 02:33:36;;;;;;;40.40;14.43;;;-6.00;99.90;;;-6.99;100.00;96969.31;4976335;28;20057;-73
2022/12/13 02:36:31;;;;;;;37.67;14.85;;;-6.00;99.90;;;-6.95;100.00;96962.66;5016534;28;20042;-72
2022/12/13 02:39:29;;;;;;;31.63;12.55;;;-6.10;99.90;;;-6.97;100.00;96971.84;5004794;28;20479;-72
2022/12/13 02:42:04;;;;;;;36.70;12.52;;;-6.10;99.90;;;-6.89;100.00;96969.44;5001515;28;20049;-72
2022/12/13 02:44:38;;;;;;;33.40;14.57;;;;;;;-6.96;100.00;96968.50;4999752;28;20042;-72
2022/12/13 02:47:32;;;;;;;30.80;13.50;;;-6.10;99.90;;;-6.89;100.00;96962.72;5011861;28;20065;-72
2022/12/13 02:50:06;;;;;;;38.63;14.20;;;-6.20;99.90;;;-6.99;100.00;96959.22;4997161;28;20088;-72
2022/12/13 02:52:34;;;;;;;35.28;12.90;;;-6.20;99.90;;;-7.01;100.00;96965.91;5005116;28;20372;-72
2022/12/13 02:55:07;;;;;;;31.65;14.18;;;-6.20;99.90;;;-7.15;100.00;96965.69;5003206;28;20049;-72
2022/12/13 02:57:40;;;;;;;40.33;14.73;;;-6.20;99.90;;;-7.09;100.00;96954.84;5000514;28;20046;-73
2022/12/13 03:00:13;;;;;;;39.17;13.88;;;-6.20;99.90;;;-7.22;100.00;96958.00;5002351;28;20052;-73
2022/12/13 03:02:51;;;;;;;37.05;13.20;;;-6.30;99.90;;;-7.25;100.00;96957.91;5003264;28;20461;-72
2022/12/13 03:09:49;;;;;;;37.22;14.18;;;-6.40;99.90;;;-7.17;100.00;96948.81;4998581;28;20054;-72
2022/12/13 03:15:37;;;;;;;33.20;12.57;;;-6.30;99.90;;;-7.28;100.00;96941.06;5003178;28;20049;-72
2022/12/13 03:18:14;;;;;;;37.35;14.07;;;-6.30;99.90;;;-7.19;100.00;96942.91;5003837;28;20076;-72
2022/12/13 03:20:51;;;;;;;39.38;14.57;;;-6.30;99.90;;;-7.38;100.00;96937.56;5000046;28;20042;-73
2022/12/13 03:23:20;;;;;;;34.13;12.50;;;-6.40;99.90;;;-7.37;100.00;96944.31;5018512;28;20618;-73
2022/12/13 03:25:52;;;;;;;39.78;15.82;;;-6.40;99.90;;;-7.37;100.00;96943.44;5003657;28;20291;-73
2022/12/13 03:28:19;;;;;;;35.65;15.07;;;-6.50;99.90;;;-7.37;100.00;96948.47;5016764;28;20057;-73
2022/12/13 03:30:46;;;;;;;36.10;15.85;;;-6.50;99.90;;;-7.40;100.00;96940.88;4998910;28;20068;-73
2022/12/13 03:33:13;;;;;;;34.72;13.90;;;-6.50;99.90;;;-7.40;100.00;96941.72;5001782;28;20063;-73
2022/12/13 03:35:41;;;;;;;42.58;14.85;;;-6.40;99.90;;;-7.42;100.00;96940.00;4999092;28;20042;-73
2022/12/13 03:38:13;;;;;;;34.97;13.45;;;-6.40;99.90;;;-7.48;100.00;96935.72;5003899;28;20112;-73
2022/12/13 03:40:57;;;;;;;36.95;14.35;;;-6.50;99.90;;;-7.53;100.00;96933.91;4999519;28;20152;-73
2022/12/13 03:43:24;;;;;;;44.10;15.45;;;-6.50;99.90;;;-7.39;100.00;96935.00;5017815;28;20054;-73
2022/12/13 03:45:53;;;;;;;44.83;15.45;;;-6.40;99.90;;;-7.34;100.00;96937.59;5000384;28;20061;-73
2022/12/13 03:48:21;;;;;;;44.72;16.85;;;-6.30;99.90;;;-7.30;100.00;96936.81;5003303;28;20041;-73
2022/12/13 03:50:51;;;;;;;45.92;16.55;;;-6.30;99.90;;;-7.39;100.00;96933.34;5002215;28;20054;-72
2022/12/13 03:53:20;;;;;;;33.47;14.95;;;-6.30;99.90;;;-7.41;100.00;96935.00;5002737;28;20045;-72
2022/12/13 03:56:00;;;;;;;47.25;18.38;;;-6.30;99.90;;;-7.23;100.00;96934.47;5002570;28;20048;-72
2022/12/13 03:58:29;;;;;;;48.15;16.40;;;-6.30;99.90;;;-7.27;100.00;96930.19;5016868;28;20041;-71
2022/12/13 04:01:07;;;;;;;37.50;16.40;;;-6.20;99.90;;;-7.28;100.00;96925.09;5000327;28;20046;-71
2022/12/13 04:03:36;;;;;;;46.25;17.25;;;-6.20;99.90;;;-7.14;100.00;96923.63;5016214;28;20049;-71
2022/12/13 04:06:04;;;;;;;48.83;17.65;;;-6.10;99.90;;;-7.12;100.00;96913.59;4998671;28;20504;-73
2022/12/13 04:08:32;;;;;;;52.45;20.38;;;-6.10;99.90;;;-7.16;100.00;96921.13;5000647;28;20046;-73
2022/12/13 04:10:59;;;;;;;42.13;17.70;;;-6.10;99.90;;;-7.11;100.00;96922.88;5003170;28;20115;-73
2022/12/13 04:13:46;;;;;;;41.85;17.23;;;-6.10;99.90;;;-7.08;100.00;96925.44;5002873;28;20054;-71
2022/12/13 04:16:13;;;;;;;41.65;15.52;;;-6.00;99.90;;;-7.10;100.00;96925.41;5007269;28;20464;-73
2022/12/13 04:18:40;;;;;;;36.13;16.63;;;-6.00;99.90;;;-7.06;100.00;96927.16;5008307;28;20073;-72
2022/12/13 04:21:07;;;;;;;52.38;19.80;;;-6.00;99.90;;;-6.99;100.00;96928.09;5005131;28;20053;-73
2022/12/13 04:23:33;;;;;;;51.50;18.48;;;-6.00;99.90;;;-7.04;100.00;96929.69;5007165;28;20053;-72
2022/12/13 04:26:01;;;;;;;51.90;20.05;;;-6.00;99.90;;;-6.99;100.00;96928.94;5022406;28;20114;-72
2022/12/13 04:28:28;;;;;;;53.22;21.70;;;-6.00;99.90;;;-6.99;100.00;96928.94;5007301;28;20054;-72
2022/12/13 04:30:55;;;;;;;41.63;17.45;;;-6.00;99.90;;;-6.98;100.00;96932.31;5004132;28;20054;-72
2022/12/13 04:33:23;;;;;;;45.97;18.40;;;-5.90;99.90;;;-6.99;100.00;96936.50;5006400;28;20050;-72
2022/12/13 04:35:50;;;;;;;55.70;21.23;;;-5.90;99.90;;;-6.98;100.00;96919.69;5004211;28;20049;-72
2022/12/13 04:38:18;;;;;;;43.20;17.20;;;-6.00;99.90;;;-7.02;100.00;96933.09;5005056;28;20050;-72
2022/12/13 04:40:45;;;;;;;50.88;18.17;;;-5.90;99.90;;;-7.00;100.00;96929.78;5004326;28;20071;-73
2022/12/13 04:43:12;;;;;;;71.28;23.38;;;-5.90;99.90;;;-6.96;100.00;96931.50;5004830;28;20077;-72
2022/12/13 04:45:39;;;;;;;51.15;20.77;;;-5.90;99.90;;;-6.98;100.00;96927.25;5006246;28;20054;-73
2022/12/13 04:48:07;;;;;;;42.55;17.10;;;-5.90;99.90;;;-7.04;100.00;96927.19;5017542;28;20135;-73
2022/12/13 04:50:34;;;;;;;46.63;18.85;;;-6.00;99.90;;;-7.01;100.00;96919.66;5004446;28;20054;-73
2022/12/13 04:53:01;;;;;;;49.58;20.92;;;-5.90;99.90;;;-6.99;100.00;96925.56;5004817;28;20573;-72
2022/12/13 04:55:28;;;;;;;46.58;19.80;;;-5.90;99.90;;;-7.00;100.00;96923.84;5005525;28;20049;-72
2022/12/13 04:57:55;;;;;;;44.40;17.65;;;-6.00;99.90;;;-7.06;100.00;96926.31;5001798;28;20060;-73
2022/12/13 05:00:22;;;;;;;46.88;17.58;;;-6.00;99.90;;;-7.07;100.00;96925.47;5002288;28;20072;-72
2022/12/13 05:02:49;;;;;;;39.28;17.13;;;-6.10;99.90;;;-7.07;100.00;96922.94;5004550;28;20132;-72
2022/12/13 05:05:16;;;;;;;47.85;18.20;;;-6.00;99.90;;;-7.08;100.00;96922.91;5003979;28;20198;-72
2022/12/13 05:07:44;;;;;;;47.15;20.00;;;-6.00;99.90;;;-7.01;100.00;96920.50;5004789;28;20049;-72
2022/12/13 05:10:11;;;;;;;43.17;17.63;;;-6.00;99.90;;;-7.05;100.00;96918.75;5002691;28;20058;-73
2022/12/13 05:12:59;;;;;;;47.95;19.10;;;-6.00;99.90;;;-7.08;100.00;96927.94;5002471;28;20054;-72
2022/12/13 05:15:26;;;;;;;48.33;20.00;;;-6.10;99.90;;;-7.08;100.00;96931.31;5005490;28;20046;-73
2022/12/13 05:17:53;;;;;;;52.63;21.05;;;-6.10;99.90;;;-6.99;100.00;96930.63;5014202;28;20069;-73
2022/12/13 05:20:21;;;;;;;48.90;19.45;;;-6.00;99.90;;;-6.99;100.00;96930.63;5005019;28;20046;-71
2022/12/13 05:22:47;;;;;;;48.10;18.92;;;-6.00;99.90;;;-7.05;100.00;96926.31;5002781;28;20050;-71
2022/12/13 05:25:15;;;;;;;46.95;19.15;;;-6.00;99.90;;;-7.07;100.00;96930.50;5003231;28;20061;-71
2022/12/13 05:27:42;;;;;;;47.47;16.77;;;-6.00;99.90;;;-7.09;100.00;96926.25;4993221;28;20056;-71
2022/12/13 05:30:10;;;;;;;43.92;17.52;;;-6.00;99.90;;;-7.13;100.00;96927.03;4993892;28;20053;-72
2022/12/13 05:32:40;;;;;;;41.00;16.13;;;-6.00;99.90;;;-7.08;100.00;96923.75;4987309;28;20046;-72
2022/12/13 05:35:19;;;;;;;42.60;16.52;;;-6.00;99.90;;;-7.06;100.00;96921.25;4988990;28;20108;-71
2022/12/13 05:37:52;;;;;;;43.63;17.77;;;-6.10;99.90;;;-7.13;100.00;96922.00;4988345;28;20046;-72
2022/12/13 05:40:23;;;;;;;41.90;18.63;;;-6.10;99.90;;;-7.09;100.00;96916.16;4984496;28;20056;-71
2022/12/13 05:42:50;;;;;;;38.72;15.98;;;-6.10;99.90;;;-7.13;100.00;96915.28;4989655;28;20057;-73
2022/12/13 05:45:27;;;;;;;37.10;15.23;;;-6.10;99.90;;;-7.15;100.00;96912.72;4983036;28;20045;-72
2022/12/13 05:47:54;;;;;;;47.92;18.13;;;-6.10;99.90;;;-7.11;100.00;96915.31;4982143;28;20072;-73
2022/12/13 05:50:21;;;;;;;43.35;17.35;;;-6.10;99.90;;;-7.20;100.00;96921.88;4979789;28;20056;-72
2022/12/13 05:52:47;;;;;;;42.33;16.50;;;-6.10;99.90;;;-7.17;100.00;96921.09;4981666;28;20093;-72
2022/12/13 05:55:14;;;;;;;38.65;16.05;;;-6.10;99.90;;;-7.25;100.00;96917.56;4979313;28;20061;-72
2022/12/13 05:57:42;;;;;;;40.67;15.70;;;-6.10;99.90;;;-7.24;100.00;96917.59;4980608;28;20042;-72
2022/12/13 06:00:18;;;;;;;46.22;16.63;;;-6.10;99.90;;;-7.18;100.00;96914.34;4981382;28;20082;-72
2022/12/13 06:02:57;;;;;;;34.88;15.95;;;-6.20;99.90;;;-7.29;100.00;96911.66;4984955;28;20069;-72
2022/12/13 06:05:28;;;;;;;43.47;15.90;;;-6.20;99.90;;;-7.28;100.00;96918.38;4977235;28;20049;-72
2022/12/13 06:07:56;;;;;;;48.22;17.45;;;-6.20;99.90;;;-7.29;100.00;96914.16;4983190;28;20068;-72
2022/12/13 06:10:25;;;;;;;47.88;17.10;;;-6.30;99.90;;;-7.31;100.00;96922.53;4984806;28;20411;-72
2022/12/13 06:13:05;;;;;;;44.20;18.33;;;-6.30;99.90;;;-7.33;100.00;96911.56;4988148;28;20392;-72
2022/12/13 06:15:52;;;;;;;41.65;14.88;;;-6.30;99.90;;;-7.37;100.00;96918.22;4988924;28;20211;-72
2022/12/13 06:18:31;;;;;;;42.08;16.42;;;-6.30;99.90;;;-7.38;100.00;96922.44;4996474;28;20041;-72
2022/12/13 06:21:02;;;;;;;41.72;17.20;;;-6.30;99.90;;;-7.41;100.00;96909.78;4985929;28;20056;-72
2022/12/13 06:23:31;;;;;;;42.58;16.33;;;-6.30;99.90;;;-7.44;100.00;96911.38;4982228;28;20060;-71
2022/12/13 06:25:58;;;;;;;41.70;15.75;;;-6.30;99.90;;;-7.43;100.00;96916.47;4990709;28;20054;-72
2022/12/13 06:28:24;;;;;;;41.13;14.55;;;-6.30;99.90;;;-7.47;100.00;96919.75;4985895;28;20049;-72
2022/12/13 06:30:51;;;;;;;42.10;17.33;;;-6.40;99.90;;;-7.43;100.00;96924.03;4985937;28;20156;-72
2022/12/13 06:33:19;;;;;;;38.70;15.85;;;-6.40;99.90;;;-7.49;100.00;96918.88;4985212;28;20052;-72
2022/12/13 06:35:51;;;;;;;38.53;17.13;;;-6.40;99.90;;;-7.44;100.00;96919.78;4987085;28;20148;-72
2022/12/13 06:38:18;;;;;;;38.72;15.60;;;-6.40;99.90;;;-7.42;100.00;96914.78;4984153;28;21143;-72
2022/12/13 06:41:15;;;;;;;45.38;17.13;;;-6.40;99.90;;;-7.51;100.00;96915.47;4983533;28;20049;-72
2022/12/13 06:43:47;;;;;;;55.90;20.05;;;-6.40;99.90;;;-7.43;100.00;96920.66;4992557;28;20060;-72
2022/12/13 06:46:14;;;;;;;40.83;16.88;;;-6.40;99.90;;;-7.51;100.00;96919.66;4985863;28;20069;-72
2022/12/13 06:48:41;;;;;;;37.03;14.50;;;-6.40;99.90;;;-7.48;100.00;96915.53;4982720;28;20060;-72
2022/12/13 06:51:09;;;;;;;43.67;16.98;;;-6.40;99.90;;;-7.47;100.00;96913.88;4983408;28;20060;-72
2022/12/13 06:53:38;;;;;;;47.03;19.55;;;-6.40;99.90;;;-7.50;100.00;96912.16;4979811;28;20472;-72
2022/12/13 06:56:11;;;;;;;43.72;17.88;;;-6.40;99.90;;;-7.43;100.00;96915.63;4997331;28;20050;-73
2022/12/13 06:58:40;;;;;;;36.72;15.52;;;-6.40;99.90;;;-7.45;100.00;96920.63;4986568;28;20049;-74
2022/12/13 07:01:16;;;;;;;43.03;17.20;;;-6.30;99.90;;;-7.44;100.00;96924.84;4986642;28;20057;-73
2022/12/13 07:03:53;;;;;;;33.75;14.73;;;-6.40;99.90;;;-7.44;100.00;96924.84;4997825;28;20061;-73
2022/12/13 07:06:22;;;;;;;35.80;15.88;;;-6.40;99.90;;;-7.51;100.00;96927.22;4982652;28;20049;-72
2022/12/13 07:08:55;;;;;;;39.97;16.20;;;-6.30;99.90;;;-7.36;100.00;96932.53;4983104;28;20105;-73
2022/12/13 07:11:30;;;;;;;37.08;15.15;;;-6.30;99.90;;;-7.45;100.00;96933.22;4986372;28;20095;-73
2022/12/13 07:13:57;;;;;;;54.90;19.75;;;-6.40;99.90;;;-7.41;100.00;96934.13;4998250;28;20046;-73
2022/12/13 07:16:24;;;;;;;44.65;17.70;;;-6.30;99.90;;;-7.42;100.00;96930.75;4982238;28;20427;-73
2022/12/13 07:18:56;;;;;;;47.90;16.65;;;-6.30;99.90;;;-7.38;100.00;96926.63;5001323;28;20901;-73
2022/12/13 07:21:28;;;;;;;49.15;19.55;;;-6.30;99.90;;;-7.35;100.00;96934.22;4981352;28;20116;-73
2022/12/13 07:23:55;;;;;;;40.92;15.70;;;-6.30;99.90;;;-7.33;100.00;96929.22;4987659;28;20505;-73
2022/12/13 07:26:22;;;;;;;42.90;15.75;;;-6.30;99.90;;;-7.34;100.00;96937.59;4986392;28;20376;-73
2022/12/13 07:28:50;;;;;;;46.83;19.08;;;-6.20;99.90;;;-7.38;100.00;96949.31;4984724;28;20085;-73
2022/12/13 07:31:23;;;;;;;42.88;16.17;;;-6.30;99.90;;;-7.37;100.00;96958.56;4982529;28;20058;-73
2022/12/13 07:33:50;;;;;;;41.30;16.88;;;-6.30;99.90;;;-7.37;100.00;96954.41;5001102;28;20050;-73
2022/12/13 07:36:20;;;;;;;38.33;15.85;;;-6.30;99.90;;;-7.32;100.00;96957.00;4985377;28;20046;-73
2022/12/13 07:38:53;;;;;;;48.42;18.55;;;-6.20;99.90;;;-7.31;100.00;96960.34;4987160;28;20054;-73
2022/12/13 07:41:22;;;;;;;44.25;16.83;;;-6.20;99.90;;;-7.29;100.00;96959.56;4981555;28;20104;-73
2022/12/13 07:43:51;;;;;;;40.83;16.83;;;-6.20;99.90;;;-7.23;100.00;96953.75;4983218;28;20112;-73
2022/12/13 07:46:22;;;;;;;37.90;15.43;;;-6.20;99.90;;;-7.31;100.00;96955.31;4985580;28;20079;-73
2022/12/13 07:49:01;;;;;;;44.50;16.98;;;-6.10;99.90;;;-7.26;100.00;96947.00;4998675;28;20050;-73
2022/12/13 07:51:29;;;;;;;39.30;15.18;;;-6.10;99.90;;;-7.26;100.00;96951.19;4986467;28;20137;-73
2022/12/13 07:53:56;;;;;;;40.60;16.20;;;-6.00;99.90;;;-7.28;100.00;96956.19;4991809;28;20365;-73
2022/12/13 07:56:23;;;;;;;42.55;15.95;;;-6.00;99.90;;;-7.21;100.00;96952.94;4988667;28;20069;-73
2022/12/13 07:58:50;;;;;;;34.78;15.07;;;-6.00;99.90;;;-7.17;100.00;96954.72;5002208;28;20050;-73
2022/12/13 08:01:17;;;;;;;37.60;14.68;;;-6.00;99.90;;;-7.11;100.00;96948.94;4984579;28;20061;-73
2022/12/13 08:03:47;;;;;;;48.28;17.42;;;-5.90;99.90;;;-7.00;100.00;96957.53;4989361;28;20058;-73
2022/12/13 08:06:14;;;;;;;40.72;15.95;;;-5.90;99.90;;;-6.96;100.00;96956.72;4986069;28;20060;-73
2022/12/13 08:08:41;;;;;;;40.67;16.25;;;-5.80;99.90;;;-6.93;100.00;96961.00;4987268;28;20525;-73
2022/12/13 08:11:14;;;;;;;36.88;16.63;;;-5.70;99.90;;;-6.88;100.00;96950.97;4988297;28;20064;-73
2022/12/13 08:13:41;;;;;;;36.27;15.47;;;-5.70;99.90;;;-6.83;100.00;96954.41;4986405;28;20053;-72
2022/12/13 08:16:10;;;;;;;38.25;15.15;;;-5.60;99.90;;;-6.87;100.00;96950.97;4989636;28;20050;-73
2022/12/13 08:18:58;;;;;;;41.92;16.25;;;-5.50;99.90;;;-6.75;100.00;96951.19;4986536;28;20149;-73
2022/12/13 08:21:38;;;;;;;37.92;17.67;;;-5.50;99.90;;;-6.71;100.00;96943.66;4991644;28;20042;-73
2022/12/13 08:24:25;;;;;;;;;;;-5.50;99.90;;;-6.66;100.00;96936.97;4987791;28;20061;-72
2022/12/13 08:26:52;;;;;;;37.88;13.82;;;-5.50;99.90;;;-6.70;100.00;96930.19;4988764;28;19925;-73
2022/12/13 08:29:19;;;;;;;35.75;14.05;;;-5.40;99.90;;;-6.70;100.00;96933.59;4986228;28;20500;-73
2022/12/13 08:32:01;;;;;;;39.47;16.85;;;-5.40;99.90;;;-6.65;100.00;96933.66;4985559;28;20548;-73
2022/12/13 08:34:28;;;;;;;38.38;16.33;;;-5.40;99.90;;;-6.49;100.00;96939.78;4989678;28;20042;-72
2022/12/13 08:36:55;;;;;;;30.63;12.65;;;-5.30;99.90;;;-6.65;100.00;96944.59;4985870;28;20136;-73
2022/12/13 08:39:28;;;;;;;37.28;15.90;;;-5.30;99.90;;;-6.53;100.00;96942.22;4987695;28;20137;-73
2022/12/13 08:41:55;;;;;;;39.35;15.63;;;-5.20;99.90;;;-6.45;100.00;96949.94;4989979;28;20058;-73
2022/12/13 08:44:22;;;;;;;39.83;17.20;;;-5.20;99.90;;;-6.46;100.00;96949.91;5000266;28;20058;-73
2022/12/13 08:46:48;;;;;;;35.30;14.85;;;-5.20;99.90;;;-6.43;100.00;96944.88;4986421;28;20077;-73
2022/12/13 08:49:15;;;;;;;40.95;17.30;;;-5.10;99.90;;;-6.36;100.00;96941.63;4992557;28;20052;-73
2022/12/13 08:51:42;;;;;;;39.97;15.57;;;-5.10;99.90;;;-6.30;100.00;96944.22;4988369;28;20105;-73
2022/12/13 08:54:09;;;;;;;34.47;14.82;;;-5.10;99.90;;;-6.29;100.00;96942.53;4985660;28;20042;-73
2022/12/13 08:56:37;;;;;;;36.38;17.83;;;-5.00;99.90;;;-6.23;100.00;96948.53;4985813;28;20985;-73
2022/12/13 08:59:09;;;;;;;38.28;15.07;;;-4.90;99.90;;;-6.19;100.00;96944.38;4986777;28;20057;-73
2022/12/13 09:01:36;;;;;;;35.30;16.15;;;-4.90;99.90;;;-6.15;100.00;96946.13;4986587;28;20056;-73
2022/12/13 09:04:03;;;;;;;35.85;17.40;;;-4.90;99.90;;;-6.10;100.00;96941.97;4986718;28;20056;-73
2022/12/13 09:06:30;;;;;;;41.22;20.00;;;-4.80;99.90;;;-6.18;100.00;96935.94;4983836;28;20054;-73
2022/12/13 09:08:57;;;;;;;36.35;16.70;;;-4.90;99.90;;;-6.00;100.00;96942.91;4985505;28;20065;-73
2022/12/13 09:11:29;;;;;;;44.65;18.50;;;-4.80;99.90;;;-6.05;100.00;96947.06;4981774;28;20058;-73
2022/12/13 09:14:02;;;;;;;43.60;18.38;;;-4.80;99.90;;;-6.10;100.00;96940.28;4983633;28;20373;-73
2022/12/13 09:16:29;;;;;;;42.83;18.83;;;-4.80;99.90;;;-6.14;100.00;96948.63;4988103;28;20427;-74
2022/12/13 09:19:04;;;;;;;36.42;15.77;;;-4.90;99.90;;;-5.98;100.00;96946.31;4986028;28;20368;-73
2022/12/13 09:21:50;;;;;;;36.10;15.73;;;-4.70;99.90;;;-5.95;100.00;96941.31;4994359;28;20077;-73
2022/12/13 09:24:18;;;;;;;37.70;15.00;;;-4.70;99.90;;;-5.95;100.00;96934.56;4984526;28;20073;-73
2022/12/13 09:26:50;;;;;;;43.03;16.45;;;-4.60;99.90;;;-5.97;100.00;96945.50;4986189;28;20061;-73
2022/12/13 09:29:23;;;;;;;32.75;14.73;;;-4.70;99.90;;;-6.02;100.00;96939.50;4984821;28;20116;-73
2022/12/13 09:31:50;;;;;;;43.55;18.23;;;-4.70;99.90;;;-5.95;100.00;96938.78;4983425;28;20299;-73
2022/12/13 09:34:19;;;;;;;44.85;20.27;;;-4.70;99.90;;;-5.90;100.00;96929.53;4982463;28;20046;-73
2022/12/13 09:36:46;;;;;;;40.97;17.63;;;-4.60;99.90;;;-5.86;100.00;96940.50;4983878;28;20759;-73
2022/12/13 09:39:13;;;;;;;50.80;22.08;;;-4.60;99.90;;;-5.76;100.00;96938.13;4987538;28;20061;-73
2022/12/13 09:41:49;;;;;;;32.53;15.02;;;-4.50;99.90;;;-5.64;100.00;96944.13;5002525;28;20396;-73
2022/12/13 09:44:32;;;;;;;37.10;17.70;;;-4.40;99.90;;;-5.58;100.00;96940.00;5001384;28;20060;-73
2022/12/13 09:47:28;;;;;;;40.40;16.38;;;-4.30;99.90;;;-5.61;100.00;96934.91;5016288;28;20046;-73
2022/12/13 09:50:07;;;;;;;39.55;18.73;;;-4.30;99.90;;;-5.69;100.00;96927.22;5018660;28;20045;-73
2022/12/13 09:52:43;;;;;;;44.80;20.50;;;-4.40;99.90;;;-5.86;100.00;96917.75;5008426;28;20042;-73
2022/12/13 09:55:22;;;;;;;45.97;18.52;;;-4.50;99.90;;;-5.70;100.00;96922.19;5002847;28;20093;-73
2022/12/13 09:57:50;;;;;;;42.45;21.35;;;-4.30;99.90;;;-5.56;100.00;96920.63;5000339;28;20700;-73
2022/12/13 10:00:21;;;;;;;42.47;19.27;;;-4.30;99.90;;;-5.51;100.00;96925.75;5016243;28;20050;-73
2022/12/13 10:02:56;;;;;;;41.60;18.77;;;-4.20;99.90;;;-5.52;100.00;96922.38;5012401;28;20468;-73
2022/12/13 10:05:31;;;;;;;43.88;18.45;;;-4.20;99.90;;;-5.48;100.00;96913.13;5020607;28;20054;-72
2022/12/13 10:08:21;;;;;;;45.13;18.88;;;-4.20;99.90;;;-5.50;100.00;96904.66;5001648;28;20072;-73
2022/12/13 10:10:50;;;;;;;40.47;19.30;;;-4.20;99.90;;;-5.48;100.00;96918.16;5000914;28;20060;-73
2022/12/13 10:13:58;;;;;;;32.97;15.63;;;-4.10;99.90;;;-5.46;100.00;96919.88;4998607;28;20296;-73
2022/12/13 10:16:33;;;;;;;47.30;20.75;;;-4.10;99.90;;;-5.35;100.00;96907.34;4985455;28;20057;-73
2022/12/13 10:19:22;;;;;;;41.35;16.40;;;-4.00;99.90;;;-5.33;100.00;96900.63;5004549;28;20061;-73
2022/12/13 10:21:57;;;;;;;39.92;16.90;;;-4.00;99.90;;;-5.31;100.00;96909.06;5001004;28;20077;-73
2022/12/13 10:24:55;;;;;;;44.45;19.17;;;-3.90;99.90;;;-5.19;100.00;96902.41;5003616;28;20058;-73
2022/12/13 10:27:26;;;;;;;;;;;-3.90;99.90;;;-5.33;100.00;96892.19;5005287;28;20122;-73
2022/12/13 10:30:01;;;;;;;32.58;14.77;;;-3.80;99.90;;;-5.43;100.00;96892.94;5001700;28;20621;-72